Time,TemperatureF,DewpointF,PressureIn,WindDirection,WindDirectionDegrees,WindSpeedMPH,WindSpeedGustMPH,Humidity,HourlyPrecipIn,Conditions,Clouds,dailyrainin,SoftwareType,DateUTC
2013-08-12 00:01:00,82.4,81.8,30.90,SSW,202,0.0,0.0,98,0.00,RA,,0.00,WeatherDisplay:10.37,2013-08-12 04:01:00,
2013-08-12 00:04:00,82.2,81.6,31.10,SSW,202,0.0,0.0,98,0.00,RA,,0.00,WeatherDisplay:10.37,2013-08-12 04:04:00,
2013-08-12 00:09:00,82.2,81.6,31.10,SSW,202,0.0,0.0,98,0.00,RA,,0.00,WeatherDisplay:10.37,2013-08-12 04:09:00,
2013-08-12 00:14:00,82.0,81.4,31.23,SSW,202,0.0,0.0,98,0.00,CLR,,0.00,WeatherDisplay:10.37,2013-08-12 04:14:00,
2013-08-12 00:19:00,82.0,81.4,31.23,SSW,202,0.0,0.0,98,0.00,CLR,,0.00,WeatherDisplay:10.37,2013-08-12 04:19:00,
2013-08-12 00:24:00,81.9,81.3,31.23,SSW,202,0.0,0.0,98,0.00,CLR,,0.00,WeatherDisplay:10.37,2013-08-12 04:24:00,
2013-08-12 00:29:00,81.9,81.3,31.39,SSW,202,0.0,0.0,98,0.00,CLR,,0.00,WeatherDisplay:10.37,2013-08-12 04:29:00,
2013-08-12 00:34:00,81.5,80.9,31.39,SSW,202,0.0,0.0,98,0.00,CLR,,0.00,WeatherDisplay:10.37,2013-08-12 04:34:00,
2013-08-12 00:39:00,81.5,80.9,31.56,SSW,202,0.0,0.0,98,0.00,CLR,,0.00,WeatherDisplay:10.37,2013-08-12 04:39:00,
2013-08-12 00:44:00,81.5,80.9,31.56,SSW,202,0.0,0.0,98,0.00,CLR,,0.00,WeatherDisplay:10.37,2013-08-12 04:44:00,
2013-08-12 00:49:00,81.5,80.9,31.74,SSW,202,0.0,0.0,98,0.00,CLR,,0.00,WeatherDisplay:10.37,2013-08-12 04:49:00,
2013-08-12 00:54:00,81.5,80.9,31.74,SSW,202,0.0,0.0,98,0.00,CLR,,0.00,WeatherDisplay:10.37,2013-08-12 04:54:00,
2013-08-12 00:59:00,81.5,80.9,31.74,SSW,202,0.0,0.0,98,0.00,CLR,,0.00,WeatherDisplay:10.37,2013-08-12 04:59:00,
2013-08-12 01:04:00,81.5,80.9,31.91,SSW,202,0.0,0.0,98,0.00,CLR,,0.00,WeatherDisplay:10.37,2013-08-12 05:04:00,
2013-08-12 01:09:00,81.3,80.7,31.91,SSW,202,0.0,0.0,98,0.00,CLR,,0.00,WeatherDisplay:10.37,2013-08-12 05:09:00,
2013-08-12 01:14:00,81.3,80.7,32.01,SSW,202,0.0,0.0,98,0.00,CLR,,0.00,WeatherDisplay:10.37,2013-08-12 05:14:00,
2013-08-12 01:19:00,81.1,80.5,32.01,SSW,202,0.0,0.0,98,0.00,CLR,,0.00,WeatherDisplay:10.37,2013-08-12 05:19:00,
2013-08-12 01:24:00,81.1,80.5,32.01,SSW,202,0.0,0.0,98,0.00,CLR,,0.00,WeatherDisplay:10.37,2013-08-12 05:24:00,
2013-08-12 01:29:00,81.0,80.4,32.14,SSW,202,0.0,0.0,98,0.00,CLR,,0.00,WeatherDisplay:10.37,2013-08-12 05:29:00,
2013-08-12 01:34:00,81.0,80.4,32.14,SSW,202,0.0,0.0,98,0.00,CLR,,0.00,WeatherDisplay:10.37,2013-08-12 05:34:00,
2013-08-12 01:39:00,81.0,80.4,32.28,SSW,202,0.0,0.0,98,0.00,CLR,,0.00,WeatherDisplay:10.37,2013-08-12 05:39:00,
2013-08-12 01:44:00,80.8,80.2,32.28,SSW,202,0.0,0.0,98,0.00,CLR,,0.00,WeatherDisplay:10.37,2013-08-12 05:44:00,
2013-08-12 01:49:00,80.8,80.2,32.38,SSW,202,0.0,0.0,98,0.00,CLR,,0.00,WeatherDisplay:10.37,2013-08-12 05:49:00,
2013-08-12 01:54:00,80.8,80.2,32.38,SSW,202,0.0,0.0,98,0.00,CLR,,0.00,WeatherDisplay:10.37,2013-08-12 05:54:00,
2013-08-12 01:59:00,80.6,80.0,32.38,SSW,202,0.0,0.0,98,0.00,CLR,,0.00,WeatherDisplay:10.37,2013-08-12 05:59:00,
2013-08-12 02:04:00,80.6,80.0,31.74,SSW,202,0.0,0.0,98,0.00,CLR,,0.00,WeatherDisplay:10.37,2013-08-12 06:04:00,
2013-08-12 02:09:00,80.6,80.0,31.74,SSW,202,0.0,0.0,98,0.00,CLR,,0.00,WeatherDisplay:10.37,2013-08-12 06:09:00,
2013-08-12 02:14:00,80.4,79.8,31.74,SSW,202,0.0,0.0,98,0.00,CLR,,0.00,WeatherDisplay:10.37,2013-08-12 06:14:00,
2013-08-12 02:19:00,80.4,79.8,31.74,SSW,202,0.0,0.0,98,0.00,CLR,,0.00,WeatherDisplay:10.37,2013-08-12 06:19:00,
2013-08-12 02:24:00,80.4,79.8,31.74,SSW,202,0.0,0.0,98,0.00,CLR,,0.00,WeatherDisplay:10.37,2013-08-12 06:24:00,
2013-08-12 02:29:00,80.4,79.8,31.74,SSW,202,0.0,0.0,98,0.00,CLR,,0.00,WeatherDisplay:10.37,2013-08-12 06:29:00,
2013-08-12 02:34:00,80.4,79.8,31.74,SSW,202,0.0,0.0,98,0.00,CLR,,0.00,WeatherDisplay:10.37,2013-08-12 06:34:00,
2013-08-12 02:39:00,80.2,79.6,31.74,SSW,202,0.0,0.0,98,0.00,CLR,,0.00,WeatherDisplay:10.37,2013-08-12 06:39:00,
2013-08-12 02:44:00,80.2,79.6,31.74,SSW,202,0.0,0.0,98,0.00,CLR,,0.00,WeatherDisplay:10.37,2013-08-12 06:44:00,
2013-08-12 02:49:00,80.2,79.6,31.74,SSW,202,0.0,0.0,98,0.00,CLR,,0.00,WeatherDisplay:10.37,2013-08-12 06:49:00,
2013-08-12 02:54:00,80.2,79.6,31.74,SSW,202,0.0,0.0,98,0.00,CLR,,0.00,WeatherDisplay:10.37,2013-08-12 06:54:00,
2013-08-12 02:59:00,79.7,79.1,31.74,SSW,202,0.0,0.0,98,0.00,CLR,,0.00,WeatherDisplay:10.37,2013-08-12 06:59:00,
2013-08-12 03:04:00,79.7,79.1,31.74,SSW,202,0.0,0.0,98,0.00,CLR,,0.00,WeatherDisplay:10.37,2013-08-12 07:04:00,
2013-08-12 03:09:00,79.7,79.1,31.74,SSW,202,0.0,0.0,98,0.00,CLR,,0.00,WeatherDisplay:10.37,2013-08-12 07:09:00,
2013-08-12 03:14:00,79.7,79.1,31.74,SSW,202,0.0,0.0,98,0.00,CLR,,0.00,WeatherDisplay:10.37,2013-08-12 07:14:00,
2013-08-12 03:19:00,79.7,79.1,31.74,SSW,202,0.0,0.0,98,0.00,CLR,,0.00,WeatherDisplay:10.37,2013-08-12 07:19:00,
2013-08-12 03:24:00,79.7,79.1,31.74,SSW,202,0.0,0.0,98,0.00,CLR,,0.00,WeatherDisplay:10.37,2013-08-12 07:24:00,
2013-08-12 03:29:00,79.7,79.1,31.74,SSW,202,0.0,0.0,98,0.00,CLR,,0.00,WeatherDisplay:10.37,2013-08-12 07:29:00,
2013-08-12 03:34:00,79.7,79.1,31.74,SSW,202,0.0,0.0,98,0.00,CLR,,0.00,WeatherDisplay:10.37,2013-08-12 07:34:00,
2013-08-12 03:39:00,79.7,79.1,31.74,SSW,202,0.0,0.0,98,0.00,CLR,,0.00,WeatherDisplay:10.37,2013-08-12 07:39:00,
2013-08-12 03:44:00,79.7,79.1,31.74,SSW,202,0.0,0.0,98,0.00,CLR,,0.00,WeatherDisplay:10.37,2013-08-12 07:44:00,
2013-08-12 03:49:00,79.5,78.9,31.74,SSW,202,0.0,0.0,98,0.00,CLR,,0.00,WeatherDisplay:10.37,2013-08-12 07:49:00,
2013-08-12 03:54:00,79.3,78.7,31.74,SSW,202,0.0,0.0,98,0.00,CLR,,0.00,WeatherDisplay:10.37,2013-08-12 07:54:00,
2013-08-12 03:59:00,79.3,78.7,31.74,SSW,202,0.0,0.0,98,0.00,CLR,,0.00,WeatherDisplay:10.37,2013-08-12 07:59:00,
2013-08-12 04:04:00,79.3,78.7,31.74,SSW,202,0.0,0.0,98,0.00,CLR,,0.00,WeatherDisplay:10.37,2013-08-12 08:04:00,
2013-08-12 04:09:00,79.3,78.7,31.74,SSW,202,0.0,0.0,98,0.00,CLR,,0.00,WeatherDisplay:10.37,2013-08-12 08:09:00,
2013-08-12 04:14:00,79.3,78.7,31.74,SSW,202,0.0,0.0,98,0.00,CLR,,0.00,WeatherDisplay:10.37,2013-08-12 08:14:00,
2013-08-12 04:19:00,79.3,78.7,31.74,SSW,202,0.0,0.0,98,0.00,CLR,,0.00,WeatherDisplay:10.37,2013-08-12 08:19:00,
2013-08-12 04:24:00,79.2,78.6,31.74,SSW,202,0.0,0.0,98,0.00,CLR,,0.00,WeatherDisplay:10.37,2013-08-12 08:24:00,
2013-08-12 04:29:00,79.2,78.6,31.74,SSW,202,0.0,0.0,98,0.00,CLR,,0.00,WeatherDisplay:10.37,2013-08-12 08:29:00,
2013-08-12 04:34:00,79.2,78.6,31.74,SSW,202,0.0,0.0,98,0.00,CLR,,0.00,WeatherDisplay:10.37,2013-08-12 08:34:00,
2013-08-12 04:39:00,79.0,78.4,31.74,SSW,202,0.0,0.0,98,0.00,CLR,,0.00,WeatherDisplay:10.37,2013-08-12 08:39:00,
2013-08-12 04:44:00,79.0,78.4,31.74,SSW,202,0.0,0.0,98,0.00,CLR,,0.00,WeatherDisplay:10.37,2013-08-12 08:44:00,
2013-08-12 04:49:00,79.0,78.4,31.74,SSW,202,0.0,0.0,98,0.00,CLR,,0.00,WeatherDisplay:10.37,2013-08-12 08:49:00,
2013-08-12 04:54:00,78.8,78.2,31.74,SSW,202,0.0,0.0,98,0.00,CLR,,0.00,WeatherDisplay:10.37,2013-08-12 08:54:00,
2013-08-12 04:59:00,78.8,78.2,31.74,SSW,202,0.0,0.0,98,0.00,CLR,,0.00,WeatherDisplay:10.37,2013-08-12 08:59:00,
2013-08-12 05:04:00,78.8,78.2,31.74,SSW,202,0.0,0.0,98,0.00,CLR,,0.00,WeatherDisplay:10.37,2013-08-12 09:04:00,
2013-08-12 05:09:00,78.8,78.2,31.74,SSW,202,0.0,0.0,98,0.00,CLR,,0.00,WeatherDisplay:10.37,2013-08-12 09:09:00,
2013-08-12 05:14:00,78.8,78.2,31.74,SSW,202,0.0,0.0,98,0.00,CLR,,0.00,WeatherDisplay:10.37,2013-08-12 09:14:00,
2013-08-12 05:19:00,78.8,78.2,31.74,SSW,202,0.0,0.0,98,0.00,CLR,,0.00,WeatherDisplay:10.37,2013-08-12 09:19:00,
2013-08-12 05:24:00,78.8,78.2,31.74,SSW,202,0.0,0.0,98,0.00,CLR,,0.00,WeatherDisplay:10.37,2013-08-12 09:24:00,
2013-08-12 05:29:00,78.8,78.2,31.74,SSW,202,0.0,0.0,98,0.00,CLR,,0.00,WeatherDisplay:10.37,2013-08-12 09:29:00,
2013-08-12 05:34:00,78.8,78.2,31.74,SSW,202,0.0,0.0,98,0.00,CLR,,0.00,WeatherDisplay:10.37,2013-08-12 09:34:00,
2013-08-12 05:39:00,78.8,78.2,31.74,SSW,202,0.0,0.0,98,0.00,CLR,,0.00,WeatherDisplay:10.37,2013-08-12 09:39:00,
2013-08-12 05:44:00,79.0,78.4,31.74,SSW,202,0.0,0.0,98,0.00,CLR,,0.00,WeatherDisplay:10.37,2013-08-12 09:44:00,
2013-08-12 05:49:00,79.0,78.4,31.74,SSW,202,0.0,0.0,98,0.00,CLR,,0.00,WeatherDisplay:10.37,2013-08-12 09:49:00,
2013-08-12 05:54:00,79.0,78.4,31.74,SSW,202,0.0,0.0,98,0.00,CLR,,0.00,WeatherDisplay:10.37,2013-08-12 09:54:00,
2013-08-12 05:59:00,79.0,78.4,31.74,SSW,202,0.0,0.0,98,0.00,CLR,,0.00,WeatherDisplay:10.37,2013-08-12 09:59:00,
2013-08-12 06:04:00,79.0,78.4,31.74,SSW,202,0.0,0.0,98,0.00,CLR,,0.00,WeatherDisplay:10.37,2013-08-12 10:04:00,
2013-08-12 06:09:00,79.0,78.4,31.74,SSW,202,0.0,0.0,98,0.00,CLR,,0.00,WeatherDisplay:10.37,2013-08-12 10:09:00,
2013-08-12 06:14:00,79.0,78.4,31.74,SSW,202,0.0,0.0,98,0.00,CLR,,0.00,WeatherDisplay:10.37,2013-08-12 10:14:00,
2013-08-12 06:19:00,79.0,78.4,31.74,SSW,202,0.0,0.0,98,0.00,CLR,,0.00,WeatherDisplay:10.37,2013-08-12 10:19:00,
2013-08-12 06:24:00,79.0,78.4,31.74,SSW,202,0.0,0.0,98,0.00,CLR,,0.00,WeatherDisplay:10.37,2013-08-12 10:24:00,
2013-08-12 06:29:00,79.0,78.4,31.74,SSW,202,0.0,0.0,98,0.00,CLR,,0.00,WeatherDisplay:10.37,2013-08-12 10:29:00,
2013-08-12 06:34:00,79.0,78.4,31.74,SSW,202,0.0,0.0,98,0.00,CLR,,0.00,WeatherDisplay:10.37,2013-08-12 10:34:00,
2013-08-12 06:39:00,79.0,78.4,30.99,SSW,202,0.0,0.0,98,0.00,CLR,,0.00,WeatherDisplay:10.37,2013-08-12 10:39:00,
2013-08-12 06:44:00,79.0,78.4,30.99,SSW,202,0.0,0.0,98,0.00,CLR,,0.00,WeatherDisplay:10.37,2013-08-12 10:44:00,
2013-08-12 06:49:00,79.0,78.4,29.90,SSW,202,0.0,0.0,98,0.00,CLR,,0.00,WeatherDisplay:10.37,2013-08-12 10:49:00,
2013-08-12 06:54:00,79.0,78.4,29.90,SSW,202,0.0,0.0,98,0.00,CLR,,0.00,WeatherDisplay:10.37,2013-08-12 10:54:00,
2013-08-12 06:59:00,79.0,78.4,29.90,SSW,202,0.0,0.0,98,0.00,CLR,,0.00,WeatherDisplay:10.37,2013-08-12 10:59:00,
2013-08-12 07:04:00,79.0,78.4,29.17,SSW,202,0.0,0.0,98,0.00,CLR,,0.00,WeatherDisplay:10.37,2013-08-12 11:04:00,
2013-08-12 07:09:00,79.3,78.7,29.17,SSW,202,0.0,0.0,98,0.00,CLR,,0.00,WeatherDisplay:10.37,2013-08-12 11:09:00,
2013-08-12 07:14:00,79.5,78.9,30.76,SSW,202,0.0,0.0,98,0.00,CLR,,0.00,WeatherDisplay:10.37,2013-08-12 11:14:00,
2013-08-12 07:19:00,79.9,79.3,30.76,SSW,202,0.0,0.0,98,0.00,CLR,,0.00,WeatherDisplay:10.37,2013-08-12 11:19:00,
2013-08-12 07:24:00,79.9,79.3,31.86,SSW,202,0.0,0.0,98,0.00,CLR,,0.00,WeatherDisplay:10.37,2013-08-12 11:24:00,
2013-08-12 07:29:00,80.1,79.5,31.86,SSW,202,0.0,0.0,98,0.00,CLR,,0.00,WeatherDisplay:10.37,2013-08-12 11:29:00,
2013-08-12 07:34:00,80.8,80.2,31.86,SSW,202,0.0,0.0,98,0.00,CLR,,0.00,WeatherDisplay:10.37,2013-08-12 11:34:00,
2013-08-12 07:39:00,81.0,80.4,31.86,SSW,202,0.0,0.0,98,0.00,CLR,,0.00,WeatherDisplay:10.37,2013-08-12 11:39:00,
2013-08-12 07:44:00,81.3,80.7,31.86,SSW,202,0.0,0.0,98,0.00,CLR,,0.00,WeatherDisplay:10.37,2013-08-12 11:44:00,
2013-08-12 07:49:00,81.3,80.7,31.05,SSW,202,0.0,0.0,98,0.00,CLR,,0.00,WeatherDisplay:10.37,2013-08-12 11:49:00,
2013-08-12 07:54:00,81.7,81.1,31.05,SSW,202,0.0,0.0,98,0.00,CLR,,0.00,WeatherDisplay:10.37,2013-08-12 11:54:00,
2013-08-12 07:59:00,83.7,83.1,31.05,SSW,202,0.0,0.0,98,0.00,CLR,,0.00,WeatherDisplay:10.37,2013-08-12 11:59:00,
2013-08-12 08:04:00,84.2,83.6,29.50,SSW,202,0.0,0.0,98,0.00,CLR,,0.00,WeatherDisplay:10.37,2013-08-12 12:04:00,
2013-08-12 08:09:00,84.7,84.1,29.50,SSW,202,0.0,0.0,98,0.00,CLR,,0.00,WeatherDisplay:10.37,2013-08-12 12:09:00,
2013-08-12 08:14:00,84.9,84.3,28.55,SSW,202,0.0,0.0,98,0.00,CLR,,0.00,WeatherDisplay:10.37,2013-08-12 12:14:00,
2013-08-12 08:19:00,85.5,84.9,28.55,SSW,202,0.0,0.0,98,0.00,CLR,,0.00,WeatherDisplay:10.37,2013-08-12 12:19:00,
2013-08-12 08:24:00,85.3,84.7,27.91,SSW,202,0.0,0.0,98,0.00,CLR,,0.00,WeatherDisplay:10.37,2013-08-12 12:24:00,
2013-08-12 08:29:00,86.0,85.4,27.91,SSW,202,0.0,0.0,98,0.00,CLR,,0.00,WeatherDisplay:10.37,2013-08-12 12:29:00,
2013-08-12 08:34:00,85.6,85.0,27.91,SSW,202,0.0,0.0,98,0.00,CLR,,0.00,WeatherDisplay:10.37,2013-08-12 12:34:00,
2013-08-12 08:39:00,86.0,85.4,27.50,SSW,202,0.0,0.0,98,0.00,CLR,,0.00,WeatherDisplay:10.37,2013-08-12 12:39:00,
2013-08-12 08:44:00,86.0,85.4,27.50,SSW,202,0.0,0.0,98,0.00,CLR,,0.00,WeatherDisplay:10.37,2013-08-12 12:44:00,
2013-08-12 08:49:00,86.5,85.9,27.23,SSW,202,0.0,0.0,98,0.00,CLR,,0.00,WeatherDisplay:10.37,2013-08-12 12:49:00,
2013-08-12 08:54:00,86.7,86.1,27.23,SSW,202,0.0,0.0,98,0.00,CLR,,0.00,WeatherDisplay:10.37,2013-08-12 12:54:00,
2013-08-12 08:59:00,86.9,86.3,27.23,SSW,202,0.0,0.0,98,0.00,CLR,,0.00,WeatherDisplay:10.37,2013-08-12 12:59:00,
2013-08-12 09:04:00,86.7,86.1,29.42,SSW,202,0.0,0.0,98,0.00,CLR,,0.00,WeatherDisplay:10.37,2013-08-12 13:04:00,
2013-08-12 09:10:00,87.1,86.5,29.42,SSW,202,0.0,0.0,98,0.00,CLR,,0.00,WeatherDisplay:10.37,2013-08-12 13:10:00,
2013-08-12 09:15:00,87.3,86.7,30.89,SSW,202,0.0,0.0,98,0.00,CLR,,0.00,WeatherDisplay:10.37,2013-08-12 13:15:00,
2013-08-12 09:20:00,88.2,87.6,30.89,SSW,202,0.0,0.0,98,0.00,CLR,,0.00,WeatherDisplay:10.37,2013-08-12 13:20:00,
2013-08-12 09:25:00,88.3,87.7,31.70,SSW,202,0.0,0.0,98,0.00,CLR,,0.00,WeatherDisplay:10.37,2013-08-12 13:25:00,
2013-08-12 09:30:00,88.0,87.4,31.70,SSW,202,0.0,0.0,98,0.00,CLR,,0.00,WeatherDisplay:10.37,2013-08-12 13:30:00,
2013-08-12 09:35:00,88.3,87.7,31.70,SSW,202,0.0,0.0,98,0.00,CLR,,0.00,WeatherDisplay:10.37,2013-08-12 13:35:00,
2013-08-12 09:40:00,89.8,89.2,32.18,SSW,202,0.0,0.0,98,0.00,CLR,,0.00,WeatherDisplay:10.37,2013-08-12 13:40:00,
2013-08-12 09:45:00,88.7,88.1,32.18,SW,225,0.0,0.0,98,0.00,CLR,,0.00,WeatherDisplay:10.37,2013-08-12 13:45:00,
2013-08-12 09:50:00,88.5,87.9,31.70,SSW,202,0.0,0.0,98,0.00,CLR,,0.00,WeatherDisplay:10.37,2013-08-12 13:50:00,
2013-08-12 09:55:00,88.7,88.1,31.70,SSW,202,0.0,0.0,98,0.00,CLR,,0.00,WeatherDisplay:10.37,2013-08-12 13:55:00,
2013-08-12 10:00:00,88.7,88.1,31.70,SSW,202,0.0,0.0,98,0.00,CLR,,0.00,WeatherDisplay:10.37,2013-08-12 14:00:00,
2013-08-12 10:05:00,89.1,88.5,31.70,SSW,202,0.0,0.0,98,0.00,CLR,,0.00,WeatherDisplay:10.37,2013-08-12 14:05:00,
2013-08-12 10:10:00,88.2,87.6,31.70,SSW,202,0.0,0.0,98,0.00,CLR,,0.00,WeatherDisplay:10.37,2013-08-12 14:10:00,
2013-08-12 10:15:00,89.4,88.8,31.70,SW,225,0.0,0.0,98,0.00,CLR,,0.00,WeatherDisplay:10.37,2013-08-12 14:15:00,
2013-08-12 10:20:00,89.4,88.8,31.70,SSW,202,0.0,0.0,98,0.00,CLR,,0.00,WeatherDisplay:10.37,2013-08-12 14:20:00,
2013-08-12 10:25:00,89.8,89.2,31.70,SSW,202,0.0,0.0,98,0.00,CLR,,0.00,WeatherDisplay:10.37,2013-08-12 14:25:00,
2013-08-12 10:30:00,89.8,89.2,31.70,SSW,202,0.0,0.0,98,0.00,CLR,,0.00,WeatherDisplay:10.37,2013-08-12 14:30:00,
2013-08-12 10:35:00,90.1,89.5,31.70,SSW,202,0.0,0.0,98,0.00,CLR,,0.00,WeatherDisplay:10.37,2013-08-12 14:35:00,
2013-08-12 10:40:00,90.0,89.4,31.70,SSW,202,0.0,0.0,98,0.00,CLR,,0.00,WeatherDisplay:10.37,2013-08-12 14:40:00,
2013-08-12 10:45:00,90.5,89.9,31.70,SSW,202,0.0,0.0,98,0.00,CLR,,0.00,WeatherDisplay:10.37,2013-08-12 14:45:00,
2013-08-12 10:50:00,90.5,89.9,30.99,SSW,202,0.0,0.0,98,0.00,CLR,,0.00,WeatherDisplay:10.37,2013-08-12 14:50:00,
2013-08-12 10:55:00,90.9,90.3,30.99,SSW,202,0.0,0.0,98,0.00,CLR,,0.00,WeatherDisplay:10.37,2013-08-12 14:55:00,
2013-08-12 11:00:00,90.7,90.1,30.99,SSW,202,0.0,0.0,98,0.00,CLR,,0.00,WeatherDisplay:10.37,2013-08-12 15:00:00,
2013-08-12 11:05:00,92.5,91.9,29.32,SW,225,0.0,0.0,98,0.00,CLR,,0.00,WeatherDisplay:10.37,2013-08-12 15:05:00,
2013-08-12 11:10:00,91.2,90.6,29.32,SSW,202,0.0,0.0,98,0.00,CLR,,0.00,WeatherDisplay:10.37,2013-08-12 15:10:00,
2013-08-12 11:15:00,90.0,89.4,28.24,SSW,202,0.0,0.0,98,0.00,CLR,,0.00,WeatherDisplay:10.37,2013-08-12 15:15:00,
2013-08-12 11:20:00,91.6,91.0,28.24,SSW,202,0.0,0.0,98,0.00,CLR,,0.00,WeatherDisplay:10.37,2013-08-12 15:20:00,
2013-08-12 11:25:00,91.2,90.6,27.99,SSW,202,0.0,0.0,98,0.00,CLR,,0.00,WeatherDisplay:10.37,2013-08-12 15:25:00,
2013-08-12 11:30:00,91.4,90.8,27.99,SSW,202,0.0,0.0,98,0.00,CLR,,0.00,WeatherDisplay:10.37,2013-08-12 15:30:00,
2013-08-12 11:35:00,90.7,90.1,27.99,SW,225,0.0,0.0,98,0.00,CLR,,0.00,WeatherDisplay:10.37,2013-08-12 15:35:00,
2013-08-12 11:40:00,91.4,90.8,29.86,SSW,202,0.0,0.0,98,0.00,CLR,,0.00,WeatherDisplay:10.37,2013-08-12 15:40:00,
2013-08-12 11:45:00,91.8,91.2,29.86,SSW,202,0.0,0.0,98,0.00,CLR,,0.00,WeatherDisplay:10.37,2013-08-12 15:45:00,
2013-08-12 11:50:00,89.4,88.8,30.90,SSW,202,0.0,0.0,98,0.00,CLR,,0.00,WeatherDisplay:10.37,2013-08-12 15:50:00,
2013-08-12 11:55:00,90.1,89.5,30.90,SSW,202,0.0,0.0,98,0.00,CLR,,0.00,WeatherDisplay:10.37,2013-08-12 15:55:00,
2013-08-12 12:00:00,91.0,90.4,30.90,SSW,202,0.0,0.0,98,0.00,CLR,,0.00,WeatherDisplay:10.37,2013-08-12 16:00:00,
2013-08-12 12:05:00,91.4,90.8,31.54,SSW,202,0.0,0.0,98,0.00,CLR,,0.00,WeatherDisplay:10.37,2013-08-12 16:05:00,
2013-08-12 12:10:00,91.6,91.0,31.54,SSW,202,0.0,0.0,98,0.00,CLR,,0.00,WeatherDisplay:10.37,2013-08-12 16:10:00,
2013-08-12 12:15:00,92.5,91.9,31.86,SSW,202,0.0,0.0,98,0.00,CLR,,0.00,WeatherDisplay:10.37,2013-08-12 16:15:00,
2013-08-12 12:20:00,90.3,89.7,31.86,SSW,202,0.0,0.0,98,0.00,CLR,,0.00,WeatherDisplay:10.37,2013-08-12 16:20:00,
2013-08-12 12:25:00,90.1,89.5,32.06,SSW,202,0.0,0.0,98,0.00,CLR,,0.00,WeatherDisplay:10.37,2013-08-12 16:25:00,
2013-08-12 12:30:00,89.2,88.6,32.06,SW,225,2.3,2.3,98,0.00,CLR,,0.00,WeatherDisplay:10.37,2013-08-12 16:30:00,
2013-08-12 12:35:00,88.3,87.7,32.06,SSW,202,0.0,0.0,98,0.00,CLR,,0.00,WeatherDisplay:10.37,2013-08-12 16:35:00,
2013-08-12 12:40:00,90.9,90.3,32.27,SW,225,0.0,0.0,98,0.00,CLR,,0.00,WeatherDisplay:10.37,2013-08-12 16:40:00,
2013-08-12 12:45:00,92.1,91.5,32.27,SSW,202,0.0,0.0,98,0.00,CLR,,0.00,WeatherDisplay:10.37,2013-08-12 16:45:00,
2013-08-12 12:50:00,92.1,91.5,32.28,SSW,202,0.0,0.0,98,0.00,CLR,,0.00,WeatherDisplay:10.37,2013-08-12 16:50:00,
2013-08-12 12:55:00,92.8,92.2,32.28,SSW,202,0.0,0.0,98,0.00,CLR,,0.00,WeatherDisplay:10.37,2013-08-12 16:55:00,
2013-08-12 13:00:00,92.1,91.5,32.28,SSW,202,0.0,0.0,98,0.00,CLR,,0.00,WeatherDisplay:10.37,2013-08-12 17:00:00,
2013-08-12 13:05:00,92.5,91.9,32.32,SSW,202,0.0,0.0,98,0.00,CLR,,0.00,WeatherDisplay:10.37,2013-08-12 17:05:00,
2013-08-12 13:10:00,92.7,92.1,32.32,SW,225,0.0,0.0,98,0.00,CLR,,0.00,WeatherDisplay:10.37,2013-08-12 17:10:00,
2013-08-12 13:15:00,91.6,91.0,32.27,SSW,202,0.0,0.0,98,0.00,CLR,,0.00,WeatherDisplay:10.37,2013-08-12 17:15:00,
2013-08-12 13:20:00,92.8,92.2,32.27,SSW,202,0.0,0.0,98,0.00,CLR,,0.00,WeatherDisplay:10.37,2013-08-12 17:20:00,
2013-08-12 13:25:00,92.7,92.1,32.24,SSW,202,0.0,0.0,98,0.00,CLR,,0.00,WeatherDisplay:10.37,2013-08-12 17:25:00,
2013-08-12 13:30:00,93.0,92.4,32.24,SW,225,0.0,0.0,98,0.00,CLR,,0.00,WeatherDisplay:10.37,2013-08-12 17:30:00,
2013-08-12 13:35:00,91.2,90.6,32.24,SSW,202,0.0,0.0,98,0.00,CLR,,0.00,WeatherDisplay:10.37,2013-08-12 17:35:00,
2013-08-12 13:40:00,91.0,90.4,32.23,SSW,202,0.0,0.0,98,0.00,CLR,,0.00,WeatherDisplay:10.37,2013-08-12 17:40:00,
2013-08-12 13:45:00,91.9,91.3,32.23,SSW,202,0.0,0.0,98,0.00,CLR,,0.00,WeatherDisplay:10.37,2013-08-12 17:45:00,
2013-08-12 13:50:00,92.5,91.9,32.19,SSW,202,0.0,0.0,98,0.00,CLR,,0.00,WeatherDisplay:10.37,2013-08-12 17:50:00,
2013-08-12 13:55:00,92.5,91.9,32.19,SSW,202,0.0,0.0,98,0.00,CLR,,0.00,WeatherDisplay:10.37,2013-08-12 17:55:00,
2013-08-12 14:00:00,91.6,91.0,32.09,SSW,202,0.0,0.0,98,0.00,CLR,,0.00,WeatherDisplay:10.37,2013-08-12 18:00:00,
2013-08-12 14:05:00,90.1,89.5,32.09,SW,225,0.0,0.0,98,0.00,CLR,,0.00,WeatherDisplay:10.37,2013-08-12 18:05:00,
2013-08-12 14:10:00,89.2,88.6,32.09,SSW,202,0.0,0.0,98,0.00,CLR,,0.00,WeatherDisplay:10.37,2013-08-12 18:10:00,
2013-08-12 14:16:00,88.2,87.6,32.19,SSW,202,0.0,0.4,98,0.00,CLR,,0.00,WeatherDisplay:10.37,2013-08-12 18:16:00,
2013-08-12 14:21:00,88.5,87.9,32.19,SW,225,0.0,0.0,98,0.00,CLR,,0.00,WeatherDisplay:10.37,2013-08-12 18:21:00,
2013-08-12 14:26:00,88.5,87.9,32.31,SW,225,0.0,0.0,98,0.00,CLR,,0.00,WeatherDisplay:10.37,2013-08-12 18:26:00,
2013-08-12 14:31:00,89.1,88.5,32.31,SSW,202,0.0,0.0,98,0.00,CLR,,0.00,WeatherDisplay:10.37,2013-08-12 18:31:00,
2013-08-12 14:36:00,88.9,88.3,32.31,SSW,202,0.0,0.0,98,0.00,CLR,,0.00,WeatherDisplay:10.37,2013-08-12 18:36:00,
2013-08-12 14:41:00,88.5,87.9,32.30,SSW,202,0.0,0.0,98,0.00,CLR,,0.00,WeatherDisplay:10.37,2013-08-12 18:41:00,
2013-08-12 14:46:00,88.0,87.4,32.30,SSW,202,0.0,0.0,98,0.00,CLR,,0.00,WeatherDisplay:10.37,2013-08-12 18:46:00,
2013-08-12 14:51:00,87.4,86.8,32.33,SSW,202,0.0,0.0,98,0.00,CLR,,0.00,WeatherDisplay:10.37,2013-08-12 18:51:00,
2013-08-12 14:56:00,87.3,86.7,32.33,SSW,202,0.0,0.0,98,0.00,CLR,,0.00,WeatherDisplay:10.37,2013-08-12 18:56:00,
2013-08-12 15:01:00,87.1,86.5,31.86,SSW,202,0.0,0.0,98,0.00,CLR,,0.00,WeatherDisplay:10.37,2013-08-12 19:01:00,
2013-08-12 15:06:00,86.9,86.3,31.86,SW,225,0.0,0.0,98,0.00,CLR,,0.00,WeatherDisplay:10.37,2013-08-12 19:06:00,
2013-08-12 15:11:00,87.3,86.7,31.86,SSW,202,0.0,0.0,98,0.00,CLR,,0.00,WeatherDisplay:10.37,2013-08-12 19:11:00,
2013-08-12 15:16:00,87.6,87.0,31.86,SSW,202,0.0,0.0,98,0.00,CLR,,0.00,WeatherDisplay:10.37,2013-08-12 19:16:00,
2013-08-12 15:21:00,87.8,87.2,31.86,SSW,202,0.0,0.0,98,0.00,CLR,,0.00,WeatherDisplay:10.37,2013-08-12 19:21:00,
2013-08-12 15:26:00,87.8,87.2,31.86,SSW,202,1.1,1.1,98,0.00,CLR,,0.00,WeatherDisplay:10.37,2013-08-12 19:26:00,
2013-08-12 15:31:00,88.2,87.6,31.86,SSW,202,0.0,0.0,98,0.00,CLR,,0.00,WeatherDisplay:10.37,2013-08-12 19:31:00,
2013-08-12 15:36:00,88.3,87.7,31.86,SSW,202,0.0,0.0,98,0.00,CLR,,0.00,WeatherDisplay:10.37,2013-08-12 19:36:00,
2013-08-12 15:41:00,88.7,88.1,31.86,SSW,202,0.0,0.0,98,0.00,CLR,,0.00,WeatherDisplay:10.37,2013-08-12 19:41:00,
2013-08-12 15:46:00,88.3,87.7,31.86,SSW,202,0.0,0.0,98,0.00,CLR,,0.00,WeatherDisplay:10.37,2013-08-12 19:46:00,
2013-08-12 15:51:00,88.7,88.1,32.36,SSW,202,0.0,0.0,98,0.00,CLR,,0.00,WeatherDisplay:10.37,2013-08-12 19:51:00,
2013-08-12 15:56:00,89.6,89.0,32.36,SSW,202,0.0,0.0,98,0.00,CLR,,0.00,WeatherDisplay:10.37,2013-08-12 19:56:00,
2013-08-12 16:01:00,89.4,88.8,32.36,SW,225,0.0,0.0,98,0.00,CLR,,0.00,WeatherDisplay:10.37,2013-08-12 20:01:00,
2013-08-12 16:06:00,89.2,88.6,32.36,SSW,202,0.0,0.0,98,0.00,CLR,,0.00,WeatherDisplay:10.37,2013-08-12 20:06:00,
2013-08-12 16:11:00,89.6,89.0,32.36,SSW,202,0.0,0.0,98,0.00,CLR,,0.00,WeatherDisplay:10.37,2013-08-12 20:11:00,
2013-08-12 16:16:00,90.0,89.4,32.33,SSW,202,0.0,0.0,98,0.00,CLR,,0.00,WeatherDisplay:10.37,2013-08-12 20:16:00,
2013-08-12 16:21:00,90.0,89.4,32.33,SSW,202,0.0,0.0,98,0.00,CLR,,0.00,WeatherDisplay:10.37,2013-08-12 20:21:00,
2013-08-12 16:26:00,90.1,89.5,32.21,SW,225,0.0,0.0,98,0.00,CLR,,0.00,WeatherDisplay:10.37,2013-08-12 20:26:00,
2013-08-12 16:31:00,88.9,88.3,32.21,SW,225,0.0,0.0,98,0.00,CLR,,0.00,WeatherDisplay:10.37,2013-08-12 20:31:00,
2013-08-12 16:36:00,88.7,88.1,32.10,SW,225,0.0,0.0,98,0.00,CLR,,0.00,WeatherDisplay:10.37,2013-08-12 20:36:00,
2013-08-12 16:41:00,88.7,88.1,32.10,SSW,202,0.0,0.0,98,0.00,CLR,,0.00,WeatherDisplay:10.37,2013-08-12 20:41:00,
2013-08-12 16:46:00,88.5,87.9,32.10,SW,225,0.0,0.0,98,0.00,CLR,,0.00,WeatherDisplay:10.37,2013-08-12 20:46:00,
2013-08-12 16:51:00,88.3,87.7,32.01,SSW,202,0.0,0.0,98,0.00,CLR,,0.00,WeatherDisplay:10.37,2013-08-12 20:51:00,
2013-08-12 16:56:00,88.9,88.3,32.01,SSW,202,0.0,0.0,98,0.00,CLR,,0.00,WeatherDisplay:10.37,2013-08-12 20:56:00,
2013-08-12 17:01:00,88.2,87.6,32.04,SSW,202,0.0,0.0,98,0.00,CLR,,0.00,WeatherDisplay:10.37,2013-08-12 21:01:00,
2013-08-12 17:06:00,88.2,87.6,32.04,SSW,202,0.0,0.0,98,0.00,CLR,,0.00,WeatherDisplay:10.37,2013-08-12 21:06:00,
2013-08-12 17:11:00,87.6,87.0,32.04,SSW,202,0.0,0.0,98,0.00,CLR,,0.00,WeatherDisplay:10.37,2013-08-12 21:11:00,
2013-08-12 17:16:00,87.6,87.0,32.17,SW,225,0.0,0.0,98,0.00,CLR,,0.00,WeatherDisplay:10.37,2013-08-12 21:16:00,
2013-08-12 17:21:00,87.6,87.0,32.17,SSW,202,0.0,0.0,98,0.00,CLR,,0.00,WeatherDisplay:10.37,2013-08-12 21:21:00,
2013-08-12 17:26:00,87.4,86.8,32.30,SSW,202,0.0,0.0,98,0.00,CLR,,0.00,WeatherDisplay:10.37,2013-08-12 21:26:00,
2013-08-12 17:31:00,87.4,86.8,32.30,SSW,202,0.0,0.0,98,0.00,CLR,,0.00,WeatherDisplay:10.37,2013-08-12 21:31:00,
2013-08-12 17:36:00,88.2,87.6,32.42,SSW,202,0.0,0.0,98,0.00,CLR,,0.00,WeatherDisplay:10.37,2013-08-12 21:36:00,
2013-08-12 17:41:00,88.2,87.6,32.42,SW,225,0.0,0.0,98,0.00,CLR,,0.00,WeatherDisplay:10.37,2013-08-12 21:41:00,
2013-08-12 17:46:00,87.6,87.0,32.42,SSW,202,0.0,0.0,98,0.00,CLR,,0.00,WeatherDisplay:10.37,2013-08-12 21:46:00,
2013-08-12 17:51:00,87.6,87.0,31.86,SSW,202,0.0,0.0,98,0.00,CLR,,0.00,WeatherDisplay:10.37,2013-08-12 21:51:00,
2013-08-12 17:56:00,87.6,87.0,31.86,SSW,202,0.0,0.0,98,0.00,CLR,,0.00,WeatherDisplay:10.37,2013-08-12 21:56:00,
2013-08-12 18:01:00,87.6,87.0,31.86,SSW,202,0.0,0.0,98,0.00,CLR,,0.00,WeatherDisplay:10.37,2013-08-12 22:01:00,
2013-08-12 18:06:00,87.6,87.0,31.86,SSW,202,0.0,0.0,98,0.00,CLR,,0.00,WeatherDisplay:10.37,2013-08-12 22:06:00,
2013-08-12 18:11:00,87.3,86.7,31.86,SW,225,0.0,0.0,98,0.00,CLR,,0.00,WeatherDisplay:10.37,2013-08-12 22:11:00,
2013-08-12 18:16:00,86.9,86.3,31.86,SSW,202,0.0,0.0,98,0.00,CLR,,0.00,WeatherDisplay:10.37,2013-08-12 22:16:00,
2013-08-12 18:21:00,86.9,86.3,31.86,SSW,202,0.0,0.0,98,0.00,CLR,,0.00,WeatherDisplay:10.37,2013-08-12 22:21:00,
2013-08-12 18:26:00,86.5,85.9,31.86,SSW,202,0.0,0.0,98,0.00,CLR,,0.00,WeatherDisplay:10.37,2013-08-12 22:26:00,
2013-08-12 18:31:00,86.5,85.9,31.86,SSW,202,0.0,0.0,98,0.00,CLR,,0.00,WeatherDisplay:10.37,2013-08-12 22:31:00,
2013-08-12 18:36:00,86.7,86.1,31.86,SSW,202,0.0,0.0,98,0.00,CLR,,0.00,WeatherDisplay:10.37,2013-08-12 22:36:00,
2013-08-12 18:41:00,86.5,85.9,31.86,SSW,202,0.0,0.0,98,0.00,CLR,,0.00,WeatherDisplay:10.37,2013-08-12 22:41:00,
2013-08-12 18:46:00,86.7,86.1,31.86,SSW,202,0.0,0.0,98,0.00,CLR,,0.00,WeatherDisplay:10.37,2013-08-12 22:46:00,
2013-08-12 18:51:00,86.5,85.9,31.86,SSW,202,0.0,0.0,98,0.00,CLR,,0.00,WeatherDisplay:10.37,2013-08-12 22:51:00,
2013-08-12 18:56:00,86.4,85.8,31.86,SSW,202,0.0,0.0,98,0.00,CLR,,0.00,WeatherDisplay:10.37,2013-08-12 22:56:00,
2013-08-12 19:01:00,86.2,85.6,31.86,SSW,202,2.7,0.0,98,0.00,CLR,,0.00,WeatherDisplay:10.37,2013-08-12 23:01:00,
2013-08-12 19:06:00,86.0,85.4,31.86,SSW,202,0.0,0.0,98,0.00,CLR,,0.00,WeatherDisplay:10.37,2013-08-12 23:06:00,
2013-08-12 19:11:00,85.6,85.0,31.86,SSW,202,0.0,0.0,98,0.00,CLR,,0.00,WeatherDisplay:10.37,2013-08-12 23:11:00,
2013-08-12 19:16:00,85.5,84.9,31.86,SSW,202,0.0,0.0,98,0.00,CLR,,0.00,WeatherDisplay:10.37,2013-08-12 23:16:00,
2013-08-12 19:21:00,85.3,84.7,31.86,SSW,202,0.0,0.0,98,0.00,CLR,,0.00,WeatherDisplay:10.37,2013-08-12 23:21:00,
2013-08-12 19:26:00,85.1,84.5,31.86,SW,225,0.0,0.0,98,0.00,CLR,,0.00,WeatherDisplay:10.37,2013-08-12 23:26:00,
2013-08-12 19:31:00,84.9,84.3,31.86,SSW,202,0.0,0.0,98,0.00,CLR,,0.00,WeatherDisplay:10.37,2013-08-12 23:31:00,
2013-08-12 19:36:00,84.7,84.1,31.86,SSW,202,0.0,0.0,98,0.00,CLR,,0.00,WeatherDisplay:10.37,2013-08-12 23:36:00,
2013-08-12 19:41:00,84.7,84.1,31.86,SSW,202,0.0,0.0,98,0.00,CLR,,0.00,WeatherDisplay:10.37,2013-08-12 23:41:00,
2013-08-12 19:46:00,84.6,84.0,31.86,SSW,202,0.0,0.0,98,0.00,CLR,,0.00,WeatherDisplay:10.37,2013-08-12 23:46:00,
2013-08-12 19:51:00,84.6,84.0,31.86,SSW,202,0.0,0.0,98,0.00,CLR,,0.00,WeatherDisplay:10.37,2013-08-12 23:51:00,
2013-08-12 19:56:00,84.4,83.8,31.86,SW,225,0.0,0.0,98,0.00,CLR,,0.00,WeatherDisplay:10.37,2013-08-12 23:56:00,
2013-08-12 20:01:00,84.4,83.8,31.86,SSW,202,0.0,0.0,98,0.00,CLR,,0.00,WeatherDisplay:10.37,2013-08-13 00:01:00,
2013-08-12 20:06:00,84.4,83.8,31.86,SSW,202,0.0,0.0,98,0.00,CLR,,0.00,WeatherDisplay:10.37,2013-08-13 00:06:00,
2013-08-12 20:11:00,84.2,83.6,31.86,SSW,202,0.0,0.0,98,0.00,CLR,,0.00,WeatherDisplay:10.37,2013-08-13 00:11:00,
2013-08-12 20:16:00,84.2,83.6,31.86,SSW,202,0.0,0.0,98,0.00,CLR,,0.00,WeatherDisplay:10.37,2013-08-13 00:16:00,
2013-08-12 20:21:00,84.2,83.6,31.86,SSW,202,0.0,0.0,98,0.00,CLR,,0.00,WeatherDisplay:10.37,2013-08-13 00:21:00,
2013-08-12 20:26:00,84.2,83.6,31.86,SSW,202,0.0,0.0,98,0.00,CLR,,0.00,WeatherDisplay:10.37,2013-08-13 00:26:00,
2013-08-12 20:31:00,84.0,83.4,31.86,SSW,202,0.0,0.0,98,0.00,CLR,,0.00,WeatherDisplay:10.37,2013-08-13 00:31:00,
2013-08-12 20:36:00,84.0,83.4,31.86,SSW,202,0.0,0.0,98,0.00,CLR,,0.00,WeatherDisplay:10.37,2013-08-13 00:36:00,
2013-08-12 20:41:00,84.0,83.4,31.86,SSW,202,0.0,0.0,98,0.00,CLR,,0.00,WeatherDisplay:10.37,2013-08-13 00:41:00,
2013-08-12 20:46:00,83.8,83.2,31.86,SSW,202,0.0,0.0,98,0.00,CLR,,0.00,WeatherDisplay:10.37,2013-08-13 00:46:00,
2013-08-12 20:51:00,83.8,83.2,31.86,SSW,202,0.0,0.0,98,0.00,CLR,,0.00,WeatherDisplay:10.37,2013-08-13 00:51:00,
2013-08-12 20:56:00,83.8,83.2,31.86,SSW,202,0.0,0.0,98,0.00,CLR,,0.00,WeatherDisplay:10.37,2013-08-13 00:56:00,
2013-08-12 21:01:00,83.8,83.2,31.86,SSW,202,0.0,0.0,98,0.00,CLR,,0.00,WeatherDisplay:10.37,2013-08-13 01:01:00,
2013-08-12 21:06:00,83.8,83.2,31.86,SSW,202,0.0,0.0,98,0.00,CLR,,0.00,WeatherDisplay:10.37,2013-08-13 01:06:00,
2013-08-12 21:11:00,83.8,83.2,31.86,SSW,202,0.0,0.0,98,0.00,CLR,,0.00,WeatherDisplay:10.37,2013-08-13 01:11:00,
2013-08-12 21:16:00,83.8,83.2,31.86,SSW,202,0.0,0.0,98,0.00,CLR,,0.00,WeatherDisplay:10.37,2013-08-13 01:16:00,
2013-08-12 21:21:00,83.8,83.2,31.86,SSW,202,0.0,0.0,98,0.00,CLR,,0.00,WeatherDisplay:10.37,2013-08-13 01:21:00,
2013-08-12 21:26:00,83.8,83.2,31.86,SSW,202,0.0,0.0,98,0.00,CLR,,0.00,WeatherDisplay:10.37,2013-08-13 01:26:00,
2013-08-12 21:31:00,84.0,83.4,31.86,SSW,202,0.0,0.0,98,0.00,CLR,,0.00,WeatherDisplay:10.37,2013-08-13 01:31:00,
2013-08-12 21:36:00,83.8,83.2,31.86,SSW,202,0.0,0.0,98,0.00,CLR,,0.00,WeatherDisplay:10.37,2013-08-13 01:36:00,
2013-08-12 21:41:00,83.8,83.2,31.86,SSW,202,0.0,0.0,98,0.00,CLR,,0.00,WeatherDisplay:10.37,2013-08-13 01:41:00,
2013-08-12 21:46:00,83.8,83.2,31.86,SSW,202,0.0,0.0,98,0.00,CLR,,0.00,WeatherDisplay:10.37,2013-08-13 01:46:00,
2013-08-12 21:51:00,83.7,83.1,31.86,SW,225,0.0,0.0,98,0.00,CLR,,0.00,WeatherDisplay:10.37,2013-08-13 01:51:00,
2013-08-12 21:56:00,83.7,83.1,31.86,SSW,202,0.0,0.0,98,0.00,CLR,,0.00,WeatherDisplay:10.37,2013-08-13 01:56:00,
2013-08-12 22:01:00,83.7,83.1,31.86,SSW,202,0.0,0.0,98,0.00,CLR,,0.00,WeatherDisplay:10.37,2013-08-13 02:01:00,
2013-08-12 22:06:00,83.7,83.1,31.86,SSW,202,0.0,0.0,98,0.00,CLR,,0.00,WeatherDisplay:10.37,2013-08-13 02:06:00,
2013-08-12 22:12:00,83.7,83.1,31.86,SSW,202,0.0,0.0,98,0.00,CLR,,0.00,WeatherDisplay:10.37,2013-08-13 02:12:00,
2013-08-12 22:17:00,83.5,82.9,31.86,SSW,202,0.0,0.0,98,0.00,CLR,,0.00,WeatherDisplay:10.37,2013-08-13 02:17:00,
2013-08-12 22:22:00,83.5,82.9,31.86,SSW,202,0.0,0.0,98,0.00,CLR,,0.00,WeatherDisplay:10.37,2013-08-13 02:22:00,
2013-08-12 22:27:00,83.5,82.9,31.39,SSW,202,0.0,0.0,98,0.00,CLR,,0.00,WeatherDisplay:10.37,2013-08-13 02:27:00,
2013-08-12 22:32:00,83.3,82.7,31.39,SSW,202,0.0,0.0,98,0.00,CLR,,0.00,WeatherDisplay:10.37,2013-08-13 02:32:00,
2013-08-12 22:37:00,83.3,82.7,29.98,SSW,202,0.0,0.0,98,0.00,CLR,,0.00,WeatherDisplay:10.37,2013-08-13 02:37:00,
2013-08-12 22:42:00,83.3,82.7,29.98,SSW,202,0.0,0.0,98,0.00,CLR,,0.00,WeatherDisplay:10.37,2013-08-13 02:42:00,
2013-08-12 22:47:00,83.3,82.7,29.98,SSW,202,0.0,0.0,98,0.00,CLR,,0.00,WeatherDisplay:10.37,2013-08-13 02:47:00,
2013-08-12 22:52:00,83.3,82.7,29.06,SSW,202,0.0,0.0,98,0.00,CLR,,0.00,WeatherDisplay:10.37,2013-08-13 02:52:00,
2013-08-12 22:57:00,83.1,82.5,29.06,SSW,202,0.0,0.0,98,0.00,CLR,,0.00,WeatherDisplay:10.37,2013-08-13 02:57:00,
2013-08-12 23:02:00,83.1,82.5,28.42,SSW,202,0.0,0.0,98,0.00,CLR,,0.00,WeatherDisplay:10.37,2013-08-13 03:02:00,
2013-08-12 23:07:00,83.1,82.5,28.42,SSW,202,0.0,0.0,98,0.00,CLR,,0.00,WeatherDisplay:10.37,2013-08-13 03:07:00,
2013-08-12 23:12:00,83.1,82.5,28.42,SSW,202,0.0,0.0,98,0.00,CLR,,0.00,WeatherDisplay:10.37,2013-08-13 03:12:00,
2013-08-12 23:17:00,83.1,82.5,29.29,SSW,202,0.0,0.0,98,0.00,CLR,,0.00,WeatherDisplay:10.37,2013-08-13 03:17:00,
2013-08-12 23:22:00,82.8,82.2,29.29,SSW,202,0.0,0.0,98,0.00,CLR,,0.00,WeatherDisplay:10.37,2013-08-13 03:22:00,
2013-08-12 23:27:00,82.8,82.2,31.14,SSW,202,0.0,0.0,98,0.00,CLR,,0.00,WeatherDisplay:10.37,2013-08-13 03:27:00,
2013-08-12 23:32:00,82.8,82.2,31.14,SSW,202,0.0,0.0,98,0.00,CLR,,0.00,WeatherDisplay:10.37,2013-08-13 03:32:00,
2013-08-12 23:37:00,82.8,82.2,32.12,SSW,202,0.0,0.0,98,0.00,CLR,,0.00,WeatherDisplay:10.37,2013-08-13 03:37:00,
2013-08-12 23:42:00,82.8,82.2,32.12,SSW,202,0.0,0.0,98,0.00,CLR,,0.00,WeatherDisplay:10.37,2013-08-13 03:42:00,
2013-08-12 23:47:00,82.8,82.2,32.12,SSW,202,0.0,0.0,98,0.00,CLR,,0.00,WeatherDisplay:10.37,2013-08-13 03:47:00,
2013-08-12 23:52:00,82.8,82.2,31.14,SSW,202,0.0,0.0,98,0.00,CLR,,0.00,WeatherDisplay:10.37,2013-08-13 03:52:00,
2013-08-12 23:57:00,82.8,82.2,31.14,SSW,202,0.0,0.0,98,0.00,CLR,,0.00,WeatherDisplay:10.37,2013-08-13 03:57:00,